sensor_id;sensor_type;location;lat;lon;timestamp;pressure;altitude;pressure_sealevel;temperature;humidity
84865;BME280;75122;41.650;25.368;2024-01-06T00:01:25;98491.59;;;9.23;59.29
84865;BME280;75122;41.650;25.368;2024-01-06T00:03:50;98479.56;;;9.17;60.05
84865;BME280;75122;41.650;25.368;2024-01-06T00:06:15;98494.41;;;9.21;59.93
84865;BME280;75122;41.650;25.368;2024-01-06T00:08:41;98496.53;;;9.24;58.94
84865;BME280;75122;41.650;25.368;2024-01-06T00:11:06;98485.25;;;9.30;60.18
84865;BME280;75122;41.650;25.368;2024-01-06T00:13:32;98492.81;;;9.32;59.78
84865;BME280;75122;41.650;25.368;2024-01-06T00:15:57;98497.31;;;9.36;59.39
84865;BME280;75122;41.650;25.368;2024-01-06T00:18:24;98488.44;;;9.32;60.21
84865;BME280;75122;41.650;25.368;2024-01-06T00:20:49;98487.84;;;9.30;60.21
84865;BME280;75122;41.650;25.368;2024-01-06T00:23:14;98486.41;;;9.11;61.18
84865;BME280;75122;41.650;25.368;2024-01-06T00:25:40;98500.72;;;9.14;60.35
84865;BME280;75122;41.650;25.368;2024-01-06T00:28:05;98496.22;;;8.86;63.41
84865;BME280;75122;41.650;25.368;2024-01-06T00:30:31;98499.25;;;8.71;62.75
84865;BME280;75122;41.650;25.368;2024-01-06T00:32:56;98500.50;;;8.80;63.75
84865;BME280;75122;41.650;25.368;2024-01-06T00:35:22;98493.53;;;8.81;61.89
84865;BME280;75122;41.650;25.368;2024-01-06T00:37:47;98497.34;;;8.90;61.70
84865;BME280;75122;41.650;25.368;2024-01-06T00:40:13;98491.94;;;8.92;61.71
84865;BME280;75122;41.650;25.368;2024-01-06T00:42:38;98489.56;;;8.90;63.01
84865;BME280;75122;41.650;25.368;2024-01-06T00:45:04;98482.50;;;8.97;61.34
84865;BME280;75122;41.650;25.368;2024-01-06T00:47:30;98489.59;;;9.02;62.27
84865;BME280;75122;41.650;25.368;2024-01-06T00:49:56;98487.44;;;8.99;62.00
84865;BME280;75122;41.650;25.368;2024-01-06T00:52:21;98484.06;;;8.98;62.39
84865;BME280;75122;41.650;25.368;2024-01-06T00:54:47;98473.38;;;8.95;62.49
84865;BME280;75122;41.650;25.368;2024-01-06T00:57:12;98479.00;;;8.92;62.87
84865;BME280;75122;41.650;25.368;2024-01-06T00:59:38;98478.44;;;9.01;61.92
84865;BME280;75122;41.650;25.368;2024-01-06T01:02:03;98476.63;;;8.90;63.47
84865;BME280;75122;41.650;25.368;2024-01-06T01:04:29;98471.91;;;8.99;62.36
84865;BME280;75122;41.650;25.368;2024-01-06T01:06:54;98471.81;;;9.05;62.10
84865;BME280;75122;41.650;25.368;2024-01-06T01:09:19;98476.88;;;9.00;65.97
84865;BME280;75122;41.650;25.368;2024-01-06T01:11:45;98468.19;;;9.06;64.37
84865;BME280;75122;41.650;25.368;2024-01-06T01:14:10;98471.81;;;9.05;64.80
84865;BME280;75122;41.650;25.368;2024-01-06T01:16:36;98467.53;;;8.99;64.88
84865;BME280;75122;41.650;25.368;2024-01-06T01:19:01;98469.22;;;9.05;65.67
84865;BME280;75122;41.650;25.368;2024-01-06T01:21:27;98462.22;;;8.94;66.86
84865;BME280;75122;41.650;25.368;2024-01-06T01:23:53;98456.63;;;8.97;66.56
84865;BME280;75122;41.650;25.368;2024-01-06T01:26:18;98458.75;;;9.12;66.90
84865;BME280;75122;41.650;25.368;2024-01-06T01:28:44;98446.91;;;9.27;66.80
84865;BME280;75122;41.650;25.368;2024-01-06T01:31:09;98443.91;;;9.47;66.79
84865;BME280;75122;41.650;25.368;2024-01-06T01:33:35;98442.75;;;9.55;66.82
84865;BME280;75122;41.650;25.368;2024-01-06T01:36:00;98429.00;;;9.66;67.19
84865;BME280;75122;41.650;25.368;2024-01-06T01:38:26;98429.19;;;9.76;66.93
84865;BME280;75122;41.650;25.368;2024-01-06T01:40:51;98425.09;;;9.80;65.88
84865;BME280;75122;41.650;25.368;2024-01-06T01:43:20;98417.34;;;9.80;65.19
84865;BME280;75122;41.650;25.368;2024-01-06T01:45:53;98405.16;;;9.80;65.39
84865;BME280;75122;41.650;25.368;2024-01-06T01:48:20;98409.25;;;9.76;66.12
84865;BME280;75122;41.650;25.368;2024-01-06T01:50:46;98406.75;;;9.81;64.81
84865;BME280;75122;41.650;25.368;2024-01-06T01:53:12;98394.00;;;9.80;66.08
84865;BME280;75122;41.650;25.368;2024-01-06T01:55:38;98385.00;;;9.82;66.36
84865;BME280;75122;41.650;25.368;2024-01-06T01:58:05;98390.81;;;9.90;64.98
84865;BME280;75122;41.650;25.368;2024-01-06T02:00:30;98391.41;;;9.80;65.31
84865;BME280;75122;41.650;25.368;2024-01-06T02:02:56;98380.94;;;9.87;66.58
84865;BME280;75122;41.650;25.368;2024-01-06T02:05:23;98380.66;;;9.71;66.81
84865;BME280;75122;41.650;25.368;2024-01-06T02:07:49;98375.72;;;9.70;67.86
84865;BME280;75122;41.650;25.368;2024-01-06T02:10:16;98384.81;;;9.72;67.37
84865;BME280;75122;41.650;25.368;2024-01-06T02:12:42;98371.63;;;9.74;67.37
84865;BME280;75122;41.650;25.368;2024-01-06T02:15:08;98370.16;;;9.78;67.11
84865;BME280;75122;41.650;25.368;2024-01-06T02:17:33;98374.25;;;9.91;67.95
84865;BME280;75122;41.650;25.368;2024-01-06T02:19:59;98384.31;;;10.04;66.80
84865;BME280;75122;41.650;25.368;2024-01-06T02:22:24;98386.97;;;10.09;67.47
84865;BME280;75122;41.650;25.368;2024-01-06T02:24:50;98391.59;;;10.35;67.74
84865;BME280;75122;41.650;25.368;2024-01-06T02:27:15;98389.13;;;10.45;67.55
84865;BME280;75122;41.650;25.368;2024-01-06T02:29:41;98377.03;;;10.51;67.56
84865;BME280;75122;41.650;25.368;2024-01-06T02:32:06;98380.72;;;10.55;66.96
84865;BME280;75122;41.650;25.368;2024-01-06T02:34:32;98378.91;;;10.55;66.70
84865;BME280;75122;41.650;25.368;2024-01-06T02:36:58;98371.72;;;10.62;66.21
84865;BME280;75122;41.650;25.368;2024-01-06T02:39:23;98359.38;;;10.69;66.24
84865;BME280;75122;41.650;25.368;2024-01-06T02:41:49;98370.09;;;10.56;66.38
84865;BME280;75122;41.650;25.368;2024-01-06T02:44:14;98364.03;;;10.67;66.67
84865;BME280;75122;41.650;25.368;2024-01-06T02:46:40;98362.53;;;10.71;66.89
84865;BME280;75122;41.650;25.368;2024-01-06T02:49:06;98356.84;;;10.74;65.96
84865;BME280;75122;41.650;25.368;2024-01-06T02:51:32;98348.56;;;10.77;65.57
84865;BME280;75122;41.650;25.368;2024-01-06T02:53:57;98351.78;;;10.85;66.30
84865;BME280;75122;41.650;25.368;2024-01-06T02:56:23;98353.66;;;10.89;65.77
84865;BME280;75122;41.650;25.368;2024-01-06T02:58:48;98341.69;;;10.88;65.28
84865;BME280;75122;41.650;25.368;2024-01-06T03:01:13;98341.25;;;10.96;65.62
84865;BME280;75122;41.650;25.368;2024-01-06T03:03:39;98342.63;;;10.99;65.56
84865;BME280;75122;41.650;25.368;2024-01-06T03:06:04;98352.22;;;10.98;65.42
84865;BME280;75122;41.650;25.368;2024-01-06T03:08:30;98361.59;;;11.04;64.59
84865;BME280;75122;41.650;25.368;2024-01-06T03:10:56;98356.47;;;11.09;64.53
84865;BME280;75122;41.650;25.368;2024-01-06T03:13:21;98358.34;;;11.14;64.86
84865;BME280;75122;41.650;25.368;2024-01-06T03:15:47;98361.59;;;11.04;64.94
84865;BME280;75122;41.650;25.368;2024-01-06T03:18:12;98351.22;;;11.04;65.66
84865;BME280;75122;41.650;25.368;2024-01-06T03:20:38;98350.50;;;11.09;64.31
84865;BME280;75122;41.650;25.368;2024-01-06T03:23:03;98355.41;;;11.05;64.11
84865;BME280;75122;41.650;25.368;2024-01-06T03:25:29;98356.09;;;10.96;65.29
84865;BME280;75122;41.650;25.368;2024-01-06T03:27:54;98350.13;;;11.00;64.40
84865;BME280;75122;41.650;25.368;2024-01-06T03:30:19;98361.38;;;11.06;63.69
84865;BME280;75122;41.650;25.368;2024-01-06T03:32:45;98353.41;;;11.12;64.68
84865;BME280;75122;41.650;25.368;2024-01-06T03:35:10;98362.22;;;11.11;65.96
84865;BME280;75122;41.650;25.368;2024-01-06T03:37:36;98354.97;;;11.13;63.79
84865;BME280;75122;41.650;25.368;2024-01-06T03:40:05;98347.38;;;11.07;65.22
84865;BME280;75122;41.650;25.368;2024-01-06T03:42:31;98355.69;;;11.09;64.40
84865;BME280;75122;41.650;25.368;2024-01-06T03:44:57;98353.41;;;11.12;65.34
84865;BME280;75122;41.650;25.368;2024-01-06T03:47:22;98357.56;;;11.13;64.66
84865;BME280;75122;41.650;25.368;2024-01-06T03:49:48;98361.75;;;11.14;65.22
84865;BME280;75122;41.650;25.368;2024-01-06T03:52:13;98365.13;;;11.15;64.58
84865;BME280;75122;41.650;25.368;2024-01-06T03:54:39;98368.50;;;11.15;64.62
84865;BME280;75122;41.650;25.368;2024-01-06T03:57:04;98368.44;;;11.10;65.57
84865;BME280;75122;41.650;25.368;2024-01-06T03:59:30;98367.38;;;11.06;65.22
84865;BME280;75122;41.650;25.368;2024-01-06T04:01:56;98370.69;;;11.02;67.25
84865;BME280;75122;41.650;25.368;2024-01-06T04:04:21;98368.16;;;11.07;66.79
84865;BME280;75122;41.650;25.368;2024-01-06T04:06:46;98350.81;;;11.12;66.75
84865;BME280;75122;41.650;25.368;2024-01-06T04:09:12;98359.69;;;11.16;65.50
84865;BME280;75122;41.650;25.368;2024-01-06T04:11:37;98362.09;;;11.01;68.06
84865;BME280;75122;41.650;25.368;2024-01-06T04:14:03;98361.81;;;10.98;68.87
84865;BME280;75122;41.650;25.368;2024-01-06T04:16:28;98365.25;;;11.03;68.09
84865;BME280;75122;41.650;25.368;2024-01-06T04:18:54;98372.25;;;11.03;68.91
84865;BME280;75122;41.650;25.368;2024-01-06T04:21:19;98367.66;;;11.10;67.43
84865;BME280;75122;41.650;25.368;2024-01-06T04:23:45;98364.63;;;11.18;68.07
84865;BME280;75122;41.650;25.368;2024-01-06T04:26:10;98374.13;;;11.07;68.71
84865;BME280;75122;41.650;25.368;2024-01-06T04:28:36;98365.25;;;11.03;68.61
84865;BME280;75122;41.650;25.368;2024-01-06T04:31:01;98361.16;;;11.07;68.77
84865;BME280;75122;41.650;25.368;2024-01-06T04:33:26;98363.06;;;11.17;68.93
84865;BME280;75122;41.650;25.368;2024-01-06T04:35:52;98372.00;;;11.26;69.89
84865;BME280;75122;41.650;25.368;2024-01-06T04:38:18;98372.84;;;11.32;69.73
84865;BME280;75122;41.650;25.368;2024-01-06T04:40:43;98361.47;;;11.38;68.40
84865;BME280;75122;41.650;25.368;2024-01-06T04:43:09;98358.81;;;11.33;68.85
84865;BME280;75122;41.650;25.368;2024-01-06T04:45:34;98365.66;;;11.39;67.35
84865;BME280;75122;41.650;25.368;2024-01-06T04:48:00;98364.28;;;11.31;68.72
84865;BME280;75122;41.650;25.368;2024-01-06T04:50:25;98364.38;;;11.41;67.78
84865;BME280;75122;41.650;25.368;2024-01-06T04:52:50;98368.34;;;11.49;68.13
84865;BME280;75122;41.650;25.368;2024-01-06T04:55:16;98362.13;;;11.50;67.18
84865;BME280;75122;41.650;25.368;2024-01-06T04:57:41;98356.97;;;11.55;67.60
84865;BME280;75122;41.650;25.368;2024-01-06T05:00:07;98365.63;;;11.60;67.37
84865;BME280;75122;41.650;25.368;2024-01-06T05:02:33;98363.59;;;11.67;68.06
84865;BME280;75122;41.650;25.368;2024-01-06T05:04:59;98356.31;;;11.69;68.24
84865;BME280;75122;41.650;25.368;2024-01-06T05:07:25;98357.72;;;11.77;66.96
84865;BME280;75122;41.650;25.368;2024-01-06T05:09:50;98357.81;;;11.60;68.11
84865;BME280;75122;41.650;25.368;2024-01-06T05:12:15;98363.34;;;11.69;67.68
84865;BME280;75122;41.650;25.368;2024-01-06T05:14:41;98357.63;;;11.67;67.06
84865;BME280;75122;41.650;25.368;2024-01-06T05:17:06;98366.19;;;11.67;67.30
84865;BME280;75122;41.650;25.368;2024-01-06T05:19:32;98371.69;;;11.71;68.24
84865;BME280;75122;41.650;25.368;2024-01-06T05:21:58;98369.31;;;11.69;67.85
84865;BME280;75122;41.650;25.368;2024-01-06T05:24:23;98374.28;;;11.71;67.53
84865;BME280;75122;41.650;25.368;2024-01-06T05:26:49;98369.41;;;11.75;67.25
84865;BME280;75122;41.650;25.368;2024-01-06T05:29:14;98367.34;;;11.77;66.84
84865;BME280;75122;41.650;25.368;2024-01-06T05:31:40;98362.16;;;11.77;68.95
84865;BME280;75122;41.650;25.368;2024-01-06T05:34:05;98382.78;;;11.88;67.94
84865;BME280;75122;41.650;25.368;2024-01-06T05:36:32;98387.44;;;11.86;68.55
84865;BME280;75122;41.650;25.368;2024-01-06T05:38:57;98394.72;;;11.84;68.14
84865;BME280;75122;41.650;25.368;2024-01-06T05:41:23;98398.91;;;11.90;68.43
84865;BME280;75122;41.650;25.368;2024-01-06T05:43:48;98383.38;;;11.95;66.80
84865;BME280;75122;41.650;25.368;2024-01-06T05:46:23;98388.63;;;12.00;66.35
84865;BME280;75122;41.650;25.368;2024-01-06T05:48:49;98391.03;;;11.80;69.75
84865;BME280;75122;41.650;25.368;2024-01-06T05:51:15;98384.31;;;11.84;67.61
84865;BME280;75122;41.650;25.368;2024-01-06T05:53:40;98394.50;;;11.91;66.90
84865;BME280;75122;41.650;25.368;2024-01-06T05:56:07;98383.28;;;11.85;69.18
84865;BME280;75122;41.650;25.368;2024-01-06T05:58:34;98391.03;;;11.80;70.19
84865;BME280;75122;41.650;25.368;2024-01-06T06:01:00;98386.41;;;11.87;67.44
84865;BME280;75122;41.650;25.368;2024-01-06T06:03:25;98394.16;;;11.82;69.48
84865;BME280;75122;41.650;25.368;2024-01-06T06:05:51;98380.97;;;11.89;69.48
84865;BME280;75122;41.650;25.368;2024-01-06T06:08:16;98385.19;;;11.95;67.56
84865;BME280;75122;41.650;25.368;2024-01-06T06:10:41;98371.16;;;11.96;68.63
84865;BME280;75122;41.650;25.368;2024-01-06T06:13:24;98375.34;;;11.97;68.63
84865;BME280;75122;41.650;25.368;2024-01-06T06:15:50;98375.84;;;11.99;67.54
84865;BME280;75122;41.650;25.368;2024-01-06T06:18:16;98373.81;;;12.01;70.06
84865;BME280;75122;41.650;25.368;2024-01-06T06:20:41;98374.31;;;12.03;69.46
84865;BME280;75122;41.650;25.368;2024-01-06T06:23:09;98366.56;;;12.08;68.88
84865;BME280;75122;41.650;25.368;2024-01-06T06:25:36;98376.53;;;12.16;68.33
84865;BME280;75122;41.650;25.368;2024-01-06T06:28:05;98367.19;;;12.20;67.17
84865;BME280;75122;41.650;25.368;2024-01-06T06:30:32;98371.84;;;12.18;68.42
84865;BME280;75122;41.650;25.368;2024-01-06T06:32:57;98364.78;;;12.13;67.48
84865;BME280;75122;41.650;25.368;2024-01-06T06:35:23;98360.34;;;12.09;70.18
84865;BME280;75122;41.650;25.368;2024-01-06T06:37:49;98359.34;;;12.15;69.25
84865;BME280;75122;41.650;25.368;2024-01-06T06:40:15;98360.66;;;12.18;68.65
84865;BME280;75122;41.650;25.368;2024-01-06T06:42:40;98353.91;;;12.22;69.05
84865;BME280;75122;41.650;25.368;2024-01-06T06:45:06;98351.63;;;12.25;68.88
84865;BME280;75122;41.650;25.368;2024-01-06T06:47:32;98349.25;;;12.24;68.96
84865;BME280;75122;41.650;25.368;2024-01-06T06:49:57;98352.69;;;12.29;68.96
84865;BME280;75122;41.650;25.368;2024-01-06T06:52:22;98352.22;;;12.37;69.44
84865;BME280;75122;41.650;25.368;2024-01-06T06:54:48;98351.16;;;12.38;68.90
84865;BME280;75122;41.650;25.368;2024-01-06T06:57:14;98351.72;;;12.40;69.01
84865;BME280;75122;41.650;25.368;2024-01-06T06:59:40;98357.25;;;12.49;68.70
84865;BME280;75122;41.650;25.368;2024-01-06T07:02:06;98351.53;;;12.52;67.78
84865;BME280;75122;41.650;25.368;2024-01-06T07:04:31;98355.94;;;12.51;67.88
84865;BME280;75122;41.650;25.368;2024-01-06T07:06:57;98363.03;;;12.61;67.16
84865;BME280;75122;41.650;25.368;2024-01-06T07:09:22;98347.94;;;12.63;67.36
84865;BME280;75122;41.650;25.368;2024-01-06T07:11:50;98352.34;;;12.62;67.29
84865;BME280;75122;41.650;25.368;2024-01-06T07:14:16;98345.59;;;12.61;68.40
84865;BME280;75122;41.650;25.368;2024-01-06T07:16:42;98351.06;;;12.60;68.41
84865;BME280;75122;41.650;25.368;2024-01-06T07:19:07;98352.16;;;12.69;67.93
84865;BME280;75122;41.650;25.368;2024-01-06T07:21:33;98347.47;;;12.71;67.69
84865;BME280;75122;41.650;25.368;2024-01-06T07:23:59;98350.88;;;12.77;68.46
84865;BME280;75122;41.650;25.368;2024-01-06T07:26:26;98352.19;;;12.79;68.23
84865;BME280;75122;41.650;25.368;2024-01-06T07:28:51;98349.59;;;12.84;68.59
84865;BME280;75122;41.650;25.368;2024-01-06T07:31:17;98337.69;;;12.93;68.16
84865;BME280;75122;41.650;25.368;2024-01-06T07:33:43;98340.03;;;13.00;67.51
84865;BME280;75122;41.650;25.368;2024-01-06T07:36:08;98339.78;;;13.06;67.96
84865;BME280;75122;41.650;25.368;2024-01-06T07:38:34;98335.19;;;13.14;67.57
84865;BME280;75122;41.650;25.368;2024-01-06T07:40:59;98320.59;;;13.18;67.92
84865;BME280;75122;41.650;25.368;2024-01-06T07:43:25;98331.00;;;13.23;66.85
84865;BME280;75122;41.650;25.368;2024-01-06T07:45:50;98326.31;;;13.20;67.99
84865;BME280;75122;41.650;25.368;2024-01-06T07:48:16;98328.44;;;13.28;67.16
84865;BME280;75122;41.650;25.368;2024-01-06T07:50:42;98321.41;;;13.33;67.95
84865;BME280;75122;41.650;25.368;2024-01-06T07:53:07;98311.25;;;13.32;68.13
84865;BME280;75122;41.650;25.368;2024-01-06T07:55:33;98322.97;;;13.39;67.86
84865;BME280;75122;41.650;25.368;2024-01-06T07:57:58;98315.72;;;13.46;67.39
84865;BME280;75122;41.650;25.368;2024-01-06T08:00:24;98315.19;;;13.54;67.49
84865;BME280;75122;41.650;25.368;2024-01-06T08:02:49;98310.75;;;13.50;68.13
84865;BME280;75122;41.650;25.368;2024-01-06T08:05:15;98322.75;;;13.46;68.28
84865;BME280;75122;41.650;25.368;2024-01-06T08:07:40;98314.13;;;13.55;68.57
84865;BME280;75122;41.650;25.368;2024-01-06T08:10:06;98316.75;;;13.61;68.16
84865;BME280;75122;41.650;25.368;2024-01-06T08:12:34;98317.81;;;13.70;68.21
84865;BME280;75122;41.650;25.368;2024-01-06T08:14:59;98310.25;;;13.78;67.63
84865;BME280;75122;41.650;25.368;2024-01-06T08:17:25;98306.88;;;13.83;67.64
84865;BME280;75122;41.650;25.368;2024-01-06T08:19:50;98298.53;;;13.91;67.50
84865;BME280;75122;41.650;25.368;2024-01-06T08:22:16;98299.56;;;13.90;67.54
84865;BME280;75122;41.650;25.368;2024-01-06T08:24:42;98303.22;;;13.99;67.10
84865;BME280;75122;41.650;25.368;2024-01-06T08:27:07;98303.97;;;14.05;66.84
84865;BME280;75122;41.650;25.368;2024-01-06T08:29:33;98296.16;;;13.99;66.98
84865;BME280;75122;41.650;25.368;2024-01-06T08:31:59;98295.13;;;14.06;67.06
84865;BME280;75122;41.650;25.368;2024-01-06T08:34:25;98296.13;;;14.20;66.94
84865;BME280;75122;41.650;25.368;2024-01-06T08:36:50;98296.91;;;14.30;66.55
84865;BME280;75122;41.650;25.368;2024-01-06T08:39:16;98295.84;;;14.41;65.48
84865;BME280;75122;41.650;25.368;2024-01-06T08:41:42;98296.34;;;14.54;66.00
84865;BME280;75122;41.650;25.368;2024-01-06T08:44:08;98288.28;;;14.45;65.77
84865;BME280;75122;41.650;25.368;2024-01-06T08:46:33;98293.47;;;14.55;65.16
84865;BME280;75122;41.650;25.368;2024-01-06T08:48:58;98291.84;;;14.64;64.79
84865;BME280;75122;41.650;25.368;2024-01-06T08:51:25;98284.31;;;14.63;65.56
84865;BME280;75122;41.650;25.368;2024-01-06T08:53:51;98283.03;;;14.55;65.79
84865;BME280;75122;41.650;25.368;2024-01-06T08:56:17;98284.09;;;14.49;66.50
84865;BME280;75122;41.650;25.368;2024-01-06T08:58:43;98284.06;;;14.54;66.10
84865;BME280;75122;41.650;25.368;2024-01-06T09:01:09;98279.63;;;14.55;66.45
84865;BME280;75122;41.650;25.368;2024-01-06T09:03:34;98269.97;;;14.55;66.40
84865;BME280;75122;41.650;25.368;2024-01-06T09:05:59;98268.16;;;14.56;67.01
84865;BME280;75122;41.650;25.368;2024-01-06T09:08:25;98268.91;;;14.61;67.26
84865;BME280;75122;41.650;25.368;2024-01-06T09:10:51;98269.66;;;14.67;67.36
84865;BME280;75122;41.650;25.368;2024-01-06T09:13:17;98283.75;;;14.71;66.76
84865;BME280;75122;41.650;25.368;2024-01-06T09:15:43;98256.28;;;14.78;66.66
84865;BME280;75122;41.650;25.368;2024-01-06T09:18:09;98261.75;;;14.82;66.40
84865;BME280;75122;41.650;25.368;2024-01-06T09:20:34;98261.47;;;14.88;65.89
84865;BME280;75122;41.650;25.368;2024-01-06T09:23:00;98264.59;;;14.90;66.10
84865;BME280;75122;41.650;25.368;2024-01-06T09:25:25;98251.84;;;14.84;66.51
84865;BME280;75122;41.650;25.368;2024-01-06T09:27:51;98263.50;;;14.97;65.93
84865;BME280;75122;41.650;25.368;2024-01-06T09:30:18;98248.03;;;15.05;65.52
84865;BME280;75122;41.650;25.368;2024-01-06T09:32:44;98257.13;;;15.18;65.04
84865;BME280;75122;41.650;25.368;2024-01-06T09:35:09;98245.47;;;15.39;64.52
84865;BME280;75122;41.650;25.368;2024-01-06T09:37:35;98250.75;;;15.73;63.02
84865;BME280;75122;41.650;25.368;2024-01-06T09:40:00;98250.09;;;16.10;62.49
84865;BME280;75122;41.650;25.368;2024-01-06T09:42:26;98261.50;;;16.24;61.25
84865;BME280;75122;41.650;25.368;2024-01-06T09:44:51;98239.66;;;16.33;59.80
84865;BME280;75122;41.650;25.368;2024-01-06T09:47:18;98243.59;;;16.31;59.96
84865;BME280;75122;41.650;25.368;2024-01-06T09:49:48;98242.44;;;16.18;59.66
84865;BME280;75122;41.650;25.368;2024-01-06T09:52:15;98232.25;;;15.93;61.02
84865;BME280;75122;41.650;25.368;2024-01-06T09:54:46;98241.28;;;15.77;59.75
84865;BME280;75122;41.650;25.368;2024-01-06T09:57:16;98262.84;;;15.64;60.30
84865;BME280;75122;41.650;25.368;2024-01-06T09:59:44;98222.03;;;15.63;59.98
84865;BME280;75122;41.650;25.368;2024-01-06T10:02:14;98208.22;;;15.57;59.81
84865;BME280;75122;41.650;25.368;2024-01-06T10:04:40;98216.31;;;15.61;60.12
84865;BME280;75122;41.650;25.368;2024-01-06T10:07:05;98227.31;;;15.58;60.37
84865;BME280;75122;41.650;25.368;2024-01-06T10:09:30;98232.84;;;15.56;60.71
84865;BME280;75122;41.650;25.368;2024-01-06T10:11:56;98215.75;;;15.64;61.10
84865;BME280;75122;41.650;25.368;2024-01-06T10:14:23;98209.41;;;15.70;60.89
84865;BME280;75122;41.650;25.368;2024-01-06T10:16:50;98212.34;;;15.68;60.76
84865;BME280;75122;41.650;25.368;2024-01-06T10:19:16;98218.09;;;15.65;60.37
84865;BME280;75122;41.650;25.368;2024-01-06T10:21:41;98199.03;;;15.65;60.93
84865;BME280;75122;41.650;25.368;2024-01-06T10:24:08;98188.41;;;15.80;60.68
84865;BME280;75122;41.650;25.368;2024-01-06T10:26:34;98193.75;;;15.94;59.26
84865;BME280;75122;41.650;25.368;2024-01-06T10:28:59;98175.81;;;16.06;60.02
84865;BME280;75122;41.650;25.368;2024-01-06T10:31:25;98163.53;;;16.06;59.69
84865;BME280;75122;41.650;25.368;2024-01-06T10:33:51;98163.13;;;15.94;60.42
84865;BME280;75122;41.650;25.368;2024-01-06T10:36:17;98151.56;;;16.00;60.39
84865;BME280;75122;41.650;25.368;2024-01-06T10:38:44;98146.00;;;16.07;59.73
84865;BME280;75122;41.650;25.368;2024-01-06T10:41:11;98137.25;;;16.16;60.01
84865;BME280;75122;41.650;25.368;2024-01-06T10:43:37;98141.03;;;16.29;59.22
84865;BME280;75122;41.650;25.368;2024-01-06T10:46:06;98138.25;;;16.39;57.96
84865;BME280;75122;41.650;25.368;2024-01-06T10:48:38;98136.78;;;16.52;58.30
84865;BME280;75122;41.650;25.368;2024-01-06T10:51:08;98151.94;;;16.55;57.67
84865;BME280;75122;41.650;25.368;2024-01-06T10:53:34;98114.63;;;16.44;57.53
84865;BME280;75122;41.650;25.368;2024-01-06T10:56:03;98143.34;;;16.30;58.50
84865;BME280;75122;41.650;25.368;2024-01-06T10:58:30;98128.34;;;16.36;58.03
84865;BME280;75122;41.650;25.368;2024-01-06T11:00:57;98119.56;;;16.27;58.43
84865;BME280;75122;41.650;25.368;2024-01-06T11:03:24;98125.31;;;16.29;58.83
84865;BME280;75122;41.650;25.368;2024-01-06T11:05:49;98118.88;;;16.21;59.90
84865;BME280;75122;41.650;25.368;2024-01-06T11:08:17;98118.63;;;16.18;60.26
84865;BME280;75122;41.650;25.368;2024-01-06T11:10:44;98113.34;;;16.23;60.81
84865;BME280;75122;41.650;25.368;2024-01-06T11:13:13;98120.97;;;16.01;61.96
84865;BME280;75122;41.650;25.368;2024-01-06T11:15:57;98126.19;;;16.01;62.99
84865;BME280;75122;41.650;25.368;2024-01-06T11:18:37;98115.03;;;15.90;63.94
84865;BME280;75122;41.650;25.368;2024-01-06T11:26:32;98110.09;;;15.89;64.25
84865;BME280;75122;41.650;25.368;2024-01-06T11:29:00;98109.59;;;15.86;64.30
84865;BME280;75122;41.650;25.368;2024-01-06T11:31:30;98098.03;;;15.93;64.90
84865;BME280;75122;41.650;25.368;2024-01-06T11:33:56;98105.09;;;15.92;64.23
84865;BME280;75122;41.650;25.368;2024-01-06T11:36:22;98112.00;;;15.83;64.61
84865;BME280;75122;41.650;25.368;2024-01-06T11:38:47;98096.03;;;15.84;64.59
84865;BME280;75122;41.650;25.368;2024-01-06T11:41:48;98109.72;;;15.76;65.36
84865;BME280;75122;41.650;25.368;2024-01-06T11:44:23;98100.88;;;15.72;65.71
84865;BME280;75122;41.650;25.368;2024-01-06T11:46:48;98108.16;;;15.75;65.06
84865;BME280;75122;41.650;25.368;2024-01-06T11:49:15;98110.13;;;15.65;65.89
84865;BME280;75122;41.650;25.368;2024-01-06T11:51:41;98098.97;;;15.54;66.67
84865;BME280;75122;41.650;25.368;2024-01-06T11:54:08;98093.91;;;15.63;66.60
84865;BME280;75122;41.650;25.368;2024-01-06T11:56:34;98096.75;;;15.66;66.89
84865;BME280;75122;41.650;25.368;2024-01-06T11:58:59;98097.88;;;15.60;66.42
84865;BME280;75122;41.650;25.368;2024-01-06T12:01:25;98094.41;;;15.65;65.97
84865;BME280;75122;41.650;25.368;2024-01-06T12:03:54;98091.50;;;15.66;66.58
84865;BME280;75122;41.650;25.368;2024-01-06T12:06:20;98094.47;;;15.83;65.32
84865;BME280;75122;41.650;25.368;2024-01-06T12:08:48;98099.25;;;15.76;65.25
84865;BME280;75122;41.650;25.368;2024-01-06T12:11:17;98072.94;;;15.68;65.44
84865;BME280;75122;41.650;25.368;2024-01-06T12:13:44;98087.31;;;15.65;64.77
84865;BME280;75122;41.650;25.368;2024-01-06T12:16:09;98079.25;;;15.62;65.97
84865;BME280;75122;41.650;25.368;2024-01-06T12:18:35;98081.09;;;15.61;65.96
84865;BME280;75122;41.650;25.368;2024-01-06T12:21:01;98076.78;;;15.47;66.59
84865;BME280;75122;41.650;25.368;2024-01-06T12:23:26;98076.31;;;15.45;67.26
84865;BME280;75122;41.650;25.368;2024-01-06T12:25:53;98079.78;;;15.35;67.71
84865;BME280;75122;41.650;25.368;2024-01-06T12:28:19;98092.47;;;15.18;68.39
84865;BME280;75122;41.650;25.368;2024-01-06T12:30:44;98085.25;;;15.10;69.59
84865;BME280;75122;41.650;25.368;2024-01-06T12:33:10;98095.72;;;15.05;69.30
84865;BME280;75122;41.650;25.368;2024-01-06T12:35:37;98095.28;;;14.98;69.98
84865;BME280;75122;41.650;25.368;2024-01-06T12:38:03;98080.69;;;14.91;69.87
84865;BME280;75122;41.650;25.368;2024-01-06T12:40:32;98085.41;;;14.89;70.04
84865;BME280;75122;41.650;25.368;2024-01-06T12:42:57;98087.78;;;14.86;71.41
84865;BME280;75122;41.650;25.368;2024-01-06T12:45:23;98080.56;;;14.73;71.76
84865;BME280;75122;41.650;25.368;2024-01-06T12:47:48;98081.66;;;14.72;71.70
84865;BME280;75122;41.650;25.368;2024-01-06T12:50:14;98079.94;;;14.52;73.65
84865;BME280;75122;41.650;25.368;2024-01-06T12:52:39;98085.41;;;14.56;73.61